createdAt,value
2022-09-15T00:02:01.330Z,18.57
2022-09-15T00:04:50.180Z,17.90
2022-09-15T00:07:40.403Z,17.70
2022-09-15T00:10:29.502Z,18.80
2022-09-15T00:13:19.033Z,18.73
2022-09-15T00:16:08.402Z,17.83
2022-09-15T00:18:57.283Z,20.17
2022-09-15T00:21:48.690Z,19.70
2022-09-15T00:24:39.059Z,19.00
2022-09-15T00:27:27.874Z,20.73
2022-09-15T00:30:16.666Z,20.60
2022-09-15T00:33:05.492Z,20.73
2022-09-15T00:35:55.333Z,21.07
2022-09-15T00:38:44.145Z,21.07
2022-09-15T00:41:34.359Z,20.33
2022-09-15T00:44:41.698Z,21.73
2022-09-15T00:47:32.036Z,19.90
2022-09-15T00:50:22.353Z,20.73
2022-09-15T00:53:12.779Z,19.93
2022-09-15T00:56:02.446Z,20.40
2022-09-15T00:58:55.638Z,18.90
2022-09-15T01:01:45.639Z,21.90
2022-09-15T01:04:34.516Z,21.77
2022-09-15T01:07:26.317Z,23.23
2022-09-15T01:10:16.813Z,22.47
2022-09-15T01:13:10.723Z,21.70
2022-09-15T01:16:04.524Z,23.67
2022-09-15T01:18:58.217Z,23.17
2022-09-15T01:21:47.879Z,22.13
2022-09-15T01:24:44.621Z,22.40
2022-09-15T01:27:51.488Z,22.03
2022-09-15T01:30:42.663Z,20.97
2022-09-15T01:33:32.847Z,19.33
2022-09-15T01:36:23.322Z,21.23
2022-09-15T01:39:14.998Z,21.03
2022-09-15T01:42:05.709Z,21.07
2022-09-15T01:44:57.091Z,20.67
2022-09-15T01:47:48.021Z,19.60
2022-09-15T01:50:38.918Z,20.07
2022-09-15T01:53:28.207Z,19.63
2022-09-15T01:56:17.084Z,21.80
2022-09-15T01:59:05.944Z,22.93
2022-09-15T02:01:59.651Z,20.03
2022-09-15T02:04:50.504Z,21.93
2022-09-15T02:07:45.436Z,21.53
2022-09-15T02:10:36.427Z,22.00
2022-09-15T02:13:28.983Z,19.40
2022-09-15T02:16:20.171Z,18.47
2022-09-15T02:19:13.219Z,19.43
2022-09-15T02:22:07.939Z,19.77
2022-09-15T02:24:59.497Z,18.20
2022-09-15T02:27:51.071Z,20.10
2022-09-15T02:30:41.868Z,19.67
2022-09-15T02:33:34.762Z,22.80
2022-09-15T02:36:23.779Z,20.10
2022-09-15T02:39:16.458Z,23.30
2022-09-15T02:42:05.447Z,23.53
2022-09-15T02:44:54.279Z,21.97
2022-09-15T02:47:43.247Z,22.40
2022-09-15T02:50:32.026Z,22.37
2022-09-15T02:53:20.814Z,22.53
2022-09-15T02:56:10.988Z,22.70
2022-09-15T02:58:59.765Z,21.70
2022-09-15T03:01:48.566Z,20.77
2022-09-15T03:04:37.436Z,22.30
2022-09-15T03:07:26.963Z,21.90
2022-09-15T03:10:16.059Z,22.00
2022-09-15T03:13:06.241Z,20.40
2022-09-15T03:15:55.036Z,20.87
2022-09-15T03:18:43.924Z,19.00
2022-09-15T03:21:32.757Z,21.70
2022-09-15T03:24:22.963Z,21.10
2022-09-15T03:27:11.763Z,20.47
2022-09-15T03:30:02.211Z,19.77
2022-09-15T03:32:51.168Z,20.90
2022-09-15T03:35:40.127Z,20.87
2022-09-15T03:38:29.246Z,21.90
2022-09-15T03:41:18.808Z,23.23
2022-09-15T03:44:07.605Z,22.17
2022-09-15T03:46:58.142Z,20.50
2022-09-15T03:49:46.931Z,21.47
2022-09-15T03:52:35.738Z,22.47
2022-09-15T03:55:24.486Z,22.13
2022-09-15T03:58:13.298Z,22.47
2022-09-15T04:01:02.130Z,22.97
2022-09-15T04:03:52.712Z,24.50
2022-09-15T04:06:41.710Z,24.00
2022-09-15T04:09:31.308Z,22.30
2022-09-15T04:12:20.086Z,22.07
2022-09-15T04:15:09.171Z,21.70
2022-09-15T04:17:58.171Z,22.97
2022-09-15T04:20:48.279Z,20.90
2022-09-15T04:23:37.096Z,22.90
2022-09-15T04:26:26.760Z,22.23
2022-09-15T04:29:16.458Z,23.97
2022-09-15T04:32:05.265Z,21.97
2022-09-15T04:34:54.026Z,22.17
2022-09-15T04:37:44.426Z,22.70
2022-09-15T04:40:33.692Z,22.57
2022-09-15T04:43:22.575Z,22.43
2022-09-15T04:46:11.450Z,23.03
2022-09-15T04:49:03.511Z,21.77
2022-09-15T04:51:53.065Z,25.00
2022-09-15T04:54:43.602Z,21.73
2022-09-15T04:57:32.438Z,23.73
2022-09-15T05:00:21.622Z,24.30
2022-09-15T05:03:10.616Z,21.07
2022-09-15T05:05:59.368Z,23.10
2022-09-15T05:08:48.994Z,23.37
2022-09-15T05:11:39.114Z,23.70
2022-09-15T05:14:27.880Z,21.73
2022-09-15T05:17:16.663Z,21.63
2022-09-15T05:20:06.130Z,21.67
2022-09-15T05:22:54.908Z,21.47
2022-09-15T05:25:43.675Z,20.37
2022-09-15T05:28:35.547Z,23.53
2022-09-15T05:31:25.450Z,23.10
2022-09-15T05:34:14.290Z,21.50
2022-09-15T05:37:03.106Z,22.27
2022-09-15T05:39:51.925Z,22.63
2022-09-15T05:42:40.736Z,21.97
2022-09-15T05:45:30.867Z,21.90
2022-09-15T05:48:19.651Z,22.60
2022-09-15T05:51:08.729Z,21.80
2022-09-15T05:53:57.524Z,19.27
2022-09-15T05:56:46.391Z,21.30
2022-09-15T05:59:36.015Z,18.87
2022-09-15T06:02:26.293Z,20.00
2022-09-15T06:05:15.097Z,21.40
2022-09-15T06:08:03.927Z,18.50
2022-09-15T06:10:52.716Z,17.20
2022-09-15T06:13:41.751Z,13.73
2022-09-15T06:16:32.541Z,13.50
2022-09-15T06:19:22.780Z,10.97
2022-09-15T06:22:11.557Z,11.63
2022-09-15T06:25:00.426Z,11.97
2022-09-15T06:27:50.714Z,11.80
2022-09-15T06:30:40.559Z,14.53
2022-09-15T06:33:29.378Z,10.43
2022-09-15T06:36:20.385Z,14.67
2022-09-15T06:39:10.175Z,11.33
2022-09-15T06:42:02.753Z,10.03
2022-09-15T06:44:55.910Z,11.90
2022-09-15T06:47:44.699Z,12.07
2022-09-15T06:50:34.036Z,10.30
2022-09-15T06:53:24.185Z,11.37
2022-09-15T06:56:14.422Z,10.47
2022-09-15T06:59:04.034Z,10.97
2022-09-15T07:01:54.475Z,11.70
2022-09-15T07:04:43.317Z,11.20
2022-09-15T07:07:32.245Z,10.83
2022-09-15T07:10:22.453Z,11.80
2022-09-15T07:13:11.464Z,11.30
2022-09-15T07:16:01.566Z,12.07
2022-09-15T07:18:50.886Z,9.80
2022-09-15T07:21:39.993Z,10.23
2022-09-15T07:24:28.889Z,10.10
2022-09-15T07:27:19.048Z,9.37
2022-09-15T07:30:08.681Z,7.77
2022-09-15T07:32:57.536Z,8.07
2022-09-15T07:35:46.599Z,9.30
2022-09-15T07:38:35.467Z,9.00
2022-09-15T07:41:25.152Z,9.00
2022-09-15T07:44:15.279Z,8.47
2022-09-15T07:47:04.061Z,7.23
2022-09-15T07:49:52.926Z,7.83
2022-09-15T07:52:41.785Z,8.07
2022-09-15T07:55:31.131Z,8.47
2022-09-15T07:58:20.052Z,7.40
2022-09-15T08:01:11.835Z,7.37
2022-09-15T08:04:00.683Z,6.43
2022-09-15T08:06:49.507Z,6.00
2022-09-15T08:09:38.543Z,6.13
2022-09-15T08:12:27.346Z,5.40
2022-09-15T08:15:16.260Z,5.90
2022-09-15T08:18:06.700Z,5.77
2022-09-15T08:20:55.475Z,6.00
2022-09-15T08:23:44.606Z,5.10
2022-09-15T08:26:33.387Z,4.70
2022-09-15T08:29:22.961Z,4.70
2022-09-15T08:32:11.966Z,4.50
2022-09-15T08:35:02.118Z,4.60
2022-09-15T08:37:50.991Z,5.57
2022-09-15T08:40:39.936Z,5.87
2022-09-15T08:43:30.803Z,5.43
2022-09-15T08:46:21.911Z,5.53
2022-09-15T08:49:13.495Z,5.90
2022-09-15T08:52:05.730Z,5.10
2022-09-15T08:54:55.335Z,5.00
2022-09-15T08:57:44.899Z,4.83
2022-09-15T09:00:34.138Z,5.00
2022-09-15T09:03:41.345Z,4.47
2022-09-15T09:06:35.131Z,3.50
2022-09-15T09:09:33.250Z,2.93
2022-09-15T09:12:38.130Z,3.30
2022-09-15T09:15:32.980Z,3.43
2022-09-15T09:18:30.605Z,2.83
2022-09-15T09:21:23.400Z,1.90
2022-09-15T09:24:16.740Z,1.87
2022-09-15T09:27:07.196Z,2.40
2022-09-15T09:29:59.452Z,1.70
2022-09-15T09:32:51.982Z,2.83
2022-09-15T09:35:44.854Z,3.30
2022-09-15T09:38:36.774Z,1.80
2022-09-15T09:41:35.470Z,1.57
2022-09-15T09:44:31.780Z,1.43
2022-09-15T09:47:21.762Z,1.50
2022-09-15T09:50:25.531Z,2.10
2022-09-15T09:53:19.428Z,1.70
2022-09-15T09:56:19.025Z,1.50
2022-09-15T09:59:07.865Z,1.33
2022-09-15T10:02:07.291Z,1.47
2022-09-15T10:04:57.100Z,1.23
2022-09-15T10:07:45.977Z,1.40
2022-09-15T10:10:35.487Z,2.13
2022-09-15T10:13:24.338Z,1.90
2022-09-15T10:16:13.185Z,1.90
2022-09-15T10:19:03.500Z,1.97
2022-09-15T10:21:52.353Z,3.17
2022-09-15T10:24:41.854Z,1.50
2022-09-15T10:27:31.922Z,1.33
2022-09-15T10:30:21.099Z,1.90
2022-09-15T10:33:20.261Z,1.17
2022-09-15T10:36:15.531Z,1.10
2022-09-15T10:39:08.088Z,1.10
2022-09-15T10:42:00.701Z,0.90
2022-09-15T10:44:53.849Z,1.23
2022-09-15T10:47:48.642Z,1.13
2022-09-15T10:50:43.271Z,1.10
2022-09-15T10:53:57.161Z,1.63
2022-09-15T10:56:49.423Z,1.83
2022-09-15T10:59:45.855Z,1.80
2022-09-15T11:03:03.363Z,1.20
2022-09-15T11:05:59.304Z,1.33
2022-09-15T11:08:55.701Z,1.03
2022-09-15T11:11:50.000Z,1.10
2022-09-15T11:14:43.664Z,1.00
2022-09-15T11:17:46.375Z,0.77
2022-09-15T11:20:45.452Z,0.83
2022-09-15T11:23:36.194Z,1.73
2022-09-15T11:26:29.434Z,1.40
2022-09-15T11:29:21.881Z,2.03
2022-09-15T11:32:13.406Z,1.70
2022-09-15T11:35:05.992Z,1.30
2022-09-15T11:37:56.690Z,1.93
2022-09-15T11:40:48.347Z,1.33
2022-09-15T11:43:39.420Z,1.90
2022-09-15T11:46:31.901Z,1.60
2022-09-15T11:49:22.481Z,1.10
2022-09-15T11:52:20.179Z,1.42
2022-09-15T11:55:15.655Z,1.25
2022-09-15T11:58:14.857Z,1.35
2022-09-15T12:01:15.837Z,1.30
2022-09-15T12:04:07.088Z,1.23
2022-09-15T12:09:52.735Z,1.58
2022-09-15T12:12:42.139Z,1.00
2022-09-15T12:15:32.403Z,1.52
2022-09-15T12:18:38.529Z,2.28
2022-09-15T12:21:33.991Z,1.40
2022-09-15T12:24:30.949Z,1.48
2022-09-15T12:27:20.919Z,1.23
2022-09-15T12:30:30.709Z,1.25
2022-09-15T12:33:53.488Z,1.90
2022-09-15T12:36:47.039Z,1.15
2022-09-15T12:39:39.803Z,2.40
2022-09-15T12:42:29.707Z,1.20
2022-09-15T12:45:22.677Z,1.13
2022-09-15T12:48:14.106Z,1.27
2022-09-15T12:51:04.870Z,1.33
2022-09-15T12:53:57.814Z,1.08
2022-09-15T12:56:52.083Z,0.80
2022-09-15T12:59:40.947Z,1.20
2022-09-15T13:02:45.745Z,1.20
2022-09-15T13:06:08.011Z,1.10
2022-09-15T13:09:18.497Z,1.53
2022-09-15T13:12:07.884Z,1.07
2022-09-15T13:14:58.475Z,1.17
2022-09-15T13:17:48.170Z,0.90
2022-09-15T13:20:39.822Z,1.13
2022-09-15T13:23:29.648Z,1.10
2022-09-15T13:26:24.002Z,1.33
2022-09-15T13:29:15.196Z,1.48
2022-09-15T13:32:10.239Z,1.45
2022-09-15T13:35:18.763Z,1.67
2022-09-15T13:38:31.686Z,1.47
2022-09-15T13:41:32.775Z,1.47
2022-09-15T13:44:54.604Z,1.60
2022-09-15T13:47:52.262Z,1.50
2022-09-15T13:50:42.951Z,1.50
2022-09-15T13:53:46.602Z,1.30
2022-09-15T13:56:41.280Z,1.40
2022-09-15T13:59:31.323Z,1.37
2022-09-15T14:02:21.349Z,1.03
2022-09-15T14:05:10.748Z,1.30
2022-09-15T14:08:02.662Z,1.47
2022-09-15T14:10:54.398Z,1.70
2022-09-15T14:13:45.841Z,1.50
2022-09-15T14:16:35.801Z,1.27
2022-09-15T14:19:33.425Z,1.73
2022-09-15T14:22:27.126Z,0.90
2022-09-15T14:25:17.970Z,1.83
2022-09-15T14:28:07.019Z,1.73
2022-09-15T14:30:57.480Z,0.80
2022-09-15T14:33:47.842Z,0.80
2022-09-15T14:36:36.859Z,0.70
2022-09-15T14:39:25.654Z,0.60
2022-09-15T14:42:21.591Z,0.60
2022-09-15T14:48:27.930Z,0.70
2022-09-15T14:51:20.490Z,0.80
2022-09-15T14:54:11.077Z,1.63
2022-09-15T14:57:00.830Z,1.20
2022-09-15T14:59:53.090Z,0.90
2022-09-15T15:02:50.397Z,1.77
2022-09-15T15:05:43.829Z,0.70
2022-09-15T15:08:35.491Z,0.90
2022-09-15T15:11:24.684Z,1.10
2022-09-15T15:14:14.255Z,1.40
2022-09-15T15:17:05.779Z,1.00
2022-09-15T15:19:59.848Z,0.80
2022-09-15T15:23:04.805Z,0.83
2022-09-15T15:25:54.232Z,0.73
2022-09-15T15:28:42.977Z,0.87
2022-09-15T15:31:31.959Z,0.80
2022-09-15T15:34:24.556Z,1.90
2022-09-15T15:37:22.190Z,1.13
2022-09-15T15:40:17.193Z,0.70
2022-09-15T15:43:07.407Z,1.17
2022-09-15T15:45:58.349Z,1.23
2022-09-15T15:48:51.076Z,0.77
2022-09-15T15:51:39.862Z,0.90
2022-09-15T15:54:29.274Z,0.83
2022-09-15T15:57:25.865Z,0.70
2022-09-15T16:00:22.939Z,0.90
2022-09-15T16:03:12.067Z,1.00
2022-09-15T16:06:02.913Z,1.20
2022-09-15T16:08:52.620Z,1.43
2022-09-15T16:11:42.719Z,1.33
2022-09-15T16:14:32.914Z,1.13
2022-09-15T16:17:21.698Z,0.70
2022-09-15T16:20:10.770Z,0.90
2022-09-15T16:22:59.612Z,10.70
2022-09-15T16:25:50.304Z,2.53
2022-09-15T16:28:39.160Z,0.83
2022-09-15T16:31:29.402Z,0.93
2022-09-15T16:34:18.646Z,2.37
2022-09-15T16:37:08.263Z,0.90
2022-09-15T16:39:57.082Z,1.10
2022-09-15T16:42:46.069Z,1.10
2022-09-15T16:45:39.818Z,1.47
2022-09-15T16:48:31.177Z,0.87
2022-09-15T16:51:27.353Z,6.30
2022-09-15T16:54:18.256Z,1.47
2022-09-15T16:57:07.464Z,1.10
2022-09-15T16:59:56.251Z,1.10
2022-09-15T17:02:45.031Z,1.20
2022-09-15T17:05:37.044Z,0.80
2022-09-15T17:08:27.103Z,0.87
2022-09-15T17:11:17.198Z,4.90
2022-09-15T17:14:06.355Z,1.20
2022-09-15T17:16:55.205Z,1.90
2022-09-15T17:19:43.996Z,1.43
2022-09-15T17:22:34.130Z,1.30
2022-09-15T17:25:25.466Z,1.40
2022-09-15T17:28:14.240Z,1.37
2022-09-15T17:31:03.570Z,1.20
2022-09-15T17:33:53.030Z,1.47
2022-09-15T17:36:41.795Z,1.80
2022-09-15T17:39:33.951Z,2.10
2022-09-15T17:42:22.949Z,2.90
2022-09-15T17:45:16.798Z,2.23
2022-09-15T17:48:06.152Z,1.90
2022-09-15T17:50:54.988Z,2.30
2022-09-15T17:53:45.085Z,2.70
2022-09-15T17:56:35.311Z,2.00
2022-09-15T17:59:24.078Z,2.47
2022-09-15T18:02:18.402Z,2.10
2022-09-15T18:05:07.669Z,2.43
2022-09-15T18:07:57.324Z,2.33
2022-09-15T18:10:46.420Z,1.60
2022-09-15T18:13:37.925Z,1.87
2022-09-15T18:16:26.715Z,1.77
2022-09-15T18:19:15.511Z,1.10
2022-09-15T18:22:05.005Z,1.37
2022-09-15T18:24:53.815Z,1.70
2022-09-15T18:27:42.624Z,1.40
2022-09-15T18:30:33.406Z,1.50
2022-09-15T18:33:23.145Z,1.33
2022-09-15T18:36:11.959Z,1.43
2022-09-15T18:39:00.866Z,1.50
2022-09-15T18:44:43.622Z,1.63
2022-09-15T18:47:33.961Z,1.20
2022-09-15T18:50:24.042Z,1.10
2022-09-15T18:53:13.157Z,1.30
2022-09-15T18:56:01.956Z,1.17
2022-09-15T18:58:53.631Z,1.83
2022-09-15T19:01:42.640Z,1.30
2022-09-15T19:04:36.110Z,2.20
2022-09-15T19:07:28.538Z,1.40
2022-09-15T19:10:17.685Z,2.90
2022-09-15T19:13:06.814Z,2.60
2022-09-15T19:15:55.738Z,1.47
2022-09-15T19:18:46.156Z,1.50
2022-09-15T19:21:36.343Z,1.30
2022-09-15T19:24:30.274Z,1.57
2022-09-15T19:27:19.068Z,1.50
2022-09-15T19:30:09.743Z,1.30
2022-09-15T19:32:59.558Z,1.13
2022-09-15T19:35:53.323Z,1.40
2022-09-15T19:38:55.855Z,1.57
2022-09-15T19:41:44.778Z,1.37
2022-09-15T19:44:33.638Z,1.50
2022-09-15T19:47:22.430Z,1.70
2022-09-15T19:50:12.626Z,1.50
2022-09-15T19:53:01.538Z,1.70
2022-09-15T19:55:52.419Z,1.23
2022-09-15T19:58:41.478Z,1.40
2022-09-15T20:01:32.443Z,1.60
2022-09-15T20:04:21.267Z,1.30
2022-09-15T20:07:10.045Z,1.50
2022-09-15T20:09:58.806Z,1.23
2022-09-15T20:12:48.910Z,1.20
2022-09-15T20:15:38.883Z,1.43
2022-09-15T20:18:28.130Z,1.83
2022-09-15T20:21:32.451Z,7.20
2022-09-15T20:24:26.936Z,1.87
2022-09-15T20:27:15.731Z,1.00
2022-09-15T20:30:06.330Z,1.10
2022-09-15T20:32:55.110Z,1.10
2022-09-15T20:35:43.897Z,1.27
2022-09-15T20:38:33.268Z,1.10
2022-09-15T20:41:23.543Z,0.97
2022-09-15T20:44:16.509Z,0.80
2022-09-15T20:47:06.891Z,1.20
2022-09-15T20:49:55.708Z,0.90
2022-09-15T20:52:44.518Z,0.87
2022-09-15T20:55:33.287Z,1.07
2022-09-15T20:58:22.075Z,0.83
2022-09-15T21:01:11.846Z,1.73
2022-09-15T21:04:02.115Z,0.80
2022-09-15T21:06:51.175Z,1.00
2022-09-15T21:09:39.917Z,0.80
2022-09-15T21:12:29.309Z,1.13
2022-09-15T21:15:18.117Z,0.73
2022-09-15T21:18:06.980Z,1.20
2022-09-15T21:20:57.600Z,1.23
2022-09-15T21:23:47.576Z,0.90
2022-09-15T21:26:57.256Z,0.80
2022-09-15T21:29:46.119Z,1.13
2022-09-15T21:32:34.983Z,1.67
2022-09-15T21:35:23.764Z,1.03
2022-09-15T21:38:13.899Z,1.50
2022-09-15T21:41:02.712Z,0.97
2022-09-15T21:43:54.573Z,1.00
2022-09-15T21:46:44.820Z,1.10
2022-09-15T21:49:33.571Z,1.13
2022-09-15T21:52:22.363Z,1.20
2022-09-15T21:55:12.581Z,1.10
2022-09-15T21:58:01.369Z,1.40
2022-09-15T22:00:50.870Z,0.80
2022-09-15T22:03:42.154Z,0.90
2022-09-15T22:06:32.299Z,1.00
2022-09-15T22:09:21.313Z,1.17
2022-09-15T22:12:11.486Z,1.30
2022-09-15T22:15:00.374Z,1.20
2022-09-15T22:17:49.180Z,1.00
2022-09-15T22:20:37.958Z,1.10
2022-09-15T22:23:26.799Z,0.80
2022-09-15T22:26:17.110Z,1.30
2022-09-15T22:29:07.639Z,0.93
2022-09-15T22:31:56.471Z,1.87
2022-09-15T22:34:45.571Z,1.10
2022-09-15T22:37:34.860Z,1.10
2022-09-15T22:40:23.663Z,1.10
2022-09-15T22:43:12.705Z,1.60
2022-09-15T22:46:03.309Z,1.00
2022-09-15T22:48:52.130Z,1.50
2022-09-15T22:51:40.913Z,1.27
2022-09-15T22:54:29.756Z,1.20
2022-09-15T22:57:18.548Z,1.00
2022-09-15T23:00:07.914Z,1.50
2022-09-15T23:02:58.037Z,0.90
2022-09-15T23:05:46.803Z,0.90
2022-09-15T23:08:35.995Z,0.90
2022-09-15T23:11:25.635Z,1.43
2022-09-15T23:14:15.820Z,1.97
2022-09-15T23:17:04.675Z,1.13
2022-09-15T23:19:55.080Z,1.30
2022-09-15T23:22:44.177Z,1.70
2022-09-15T23:25:32.982Z,1.70
2022-09-15T23:28:21.767Z,2.37
2022-09-15T23:31:11.926Z,2.60
2022-09-15T23:34:00.858Z,2.30
2022-09-15T23:36:51.001Z,2.50
2022-09-15T23:39:40.035Z,2.80
2022-09-15T23:42:28.823Z,2.87
2022-09-15T23:45:17.669Z,3.00
2022-09-15T23:48:06.826Z,3.00
2022-09-15T23:50:55.607Z,2.47
2022-09-15T23:53:45.712Z,2.37
2022-09-15T23:56:34.638Z,2.43
2022-09-15T23:59:23.401Z,2.83
